createdAt,value
2023-05-11T00:00:52.847Z,0.00
2023-05-11T00:01:52.901Z,0.00
2023-05-11T00:02:53.043Z,0.00
2023-05-11T00:03:53.254Z,0.00
2023-05-11T00:04:52.826Z,0.00
2023-05-11T00:05:52.823Z,0.00
2023-05-11T00:06:52.842Z,0.00
2023-05-11T00:07:52.812Z,0.00
2023-05-11T00:08:52.822Z,0.00
2023-05-11T00:09:52.800Z,0.00
2023-05-11T00:10:52.802Z,0.00
2023-05-11T00:11:52.743Z,0.00
2023-05-11T00:12:52.791Z,0.00
2023-05-11T00:13:52.744Z,0.00
2023-05-11T00:14:52.754Z,0.00
2023-05-11T00:15:52.793Z,0.00
2023-05-11T00:16:52.713Z,0.00
2023-05-11T00:17:52.807Z,0.00
2023-05-11T00:18:52.832Z,0.00
2023-05-11T00:19:52.697Z,0.00
2023-05-11T00:20:52.683Z,0.00
2023-05-11T00:21:52.702Z,0.00
2023-05-11T00:22:52.683Z,0.00
2023-05-11T00:23:52.745Z,0.00
2023-05-11T00:24:52.678Z,0.00
2023-05-11T00:25:52.662Z,0.00
2023-05-11T00:26:52.703Z,0.00
2023-05-11T00:27:52.647Z,0.00
2023-05-11T00:28:52.611Z,0.00
2023-05-11T00:29:52.656Z,0.00
2023-05-11T00:30:52.615Z,0.00
2023-05-11T00:31:52.668Z,0.00
2023-05-11T00:32:52.679Z,0.00
2023-05-11T00:33:52.573Z,0.00
2023-05-11T00:34:52.575Z,0.00
2023-05-11T00:35:52.578Z,0.00
2023-05-11T00:36:52.537Z,0.00
2023-05-11T00:37:52.578Z,0.00
2023-05-11T00:38:52.557Z,0.00
2023-05-11T00:39:52.617Z,0.00
2023-05-11T00:40:52.548Z,0.00
2023-05-11T00:41:52.562Z,0.00
2023-05-11T00:42:52.571Z,0.00
2023-05-11T00:43:52.523Z,0.00
2023-05-11T00:44:52.583Z,0.00
2023-05-11T00:45:52.518Z,0.00
2023-05-11T00:46:52.518Z,0.00
2023-05-11T00:47:52.492Z,0.00
2023-05-11T00:48:52.545Z,0.00
2023-05-11T00:49:52.484Z,0.00
2023-05-11T00:50:52.437Z,0.00
2023-05-11T00:51:52.438Z,0.00
2023-05-11T00:52:52.518Z,0.00
2023-05-11T00:53:52.599Z,0.00
2023-05-11T00:54:52.421Z,0.00
2023-05-11T00:55:52.411Z,0.00
2023-05-11T00:56:52.420Z,0.00
2023-05-11T00:57:52.407Z,0.00
2023-05-11T00:58:52.390Z,0.00
2023-05-11T00:59:52.376Z,0.00
2023-05-11T01:00:52.370Z,0.00
2023-05-11T01:01:52.396Z,0.00
2023-05-11T01:02:52.649Z,0.00
2023-05-11T01:03:52.551Z,0.00
2023-05-11T01:04:52.339Z,0.00
2023-05-11T01:05:52.301Z,0.00
2023-05-11T01:06:52.377Z,0.00
2023-05-11T01:07:52.302Z,0.00
2023-05-11T01:08:52.268Z,0.00
2023-05-11T01:09:52.304Z,0.00
2023-05-11T01:10:52.307Z,0.00
2023-05-11T01:11:52.301Z,0.00
2023-05-11T01:12:52.286Z,0.00
2023-05-11T01:13:52.287Z,0.00
2023-05-11T01:14:52.237Z,0.00
2023-05-11T01:15:52.265Z,0.00
2023-05-11T01:16:52.263Z,0.00
2023-05-11T01:17:52.310Z,0.00
2023-05-11T01:18:52.253Z,0.00
2023-05-11T01:19:52.218Z,0.00
2023-05-11T01:20:52.193Z,0.00
2023-05-11T01:21:52.358Z,0.00
2023-05-11T01:22:52.179Z,0.00
2023-05-11T01:23:52.182Z,0.00
2023-05-11T01:24:52.170Z,0.00
2023-05-11T01:25:52.133Z,0.00
2023-05-11T01:26:52.124Z,0.00
2023-05-11T01:27:52.146Z,0.00
2023-05-11T01:28:52.157Z,0.00
2023-05-11T01:29:52.137Z,0.00
2023-05-11T01:30:52.141Z,0.00
2023-05-11T01:31:52.139Z,0.00
2023-05-11T01:32:52.098Z,0.00
2023-05-11T01:33:52.063Z,0.00
2023-05-11T01:34:52.084Z,0.00
2023-05-11T01:35:52.101Z,0.00
2023-05-11T01:36:52.088Z,0.00
2023-05-11T01:37:52.033Z,0.00
2023-05-11T01:38:52.218Z,0.00
2023-05-11T01:39:52.041Z,0.00
2023-05-11T01:40:52.042Z,0.00
2023-05-11T01:41:52.012Z,0.00
2023-05-11T01:42:52.016Z,0.00
2023-05-11T01:43:52.027Z,0.00
2023-05-11T01:44:52.000Z,0.00
2023-05-11T01:45:52.009Z,0.00
2023-05-11T01:46:52.164Z,0.00
2023-05-11T01:47:52.006Z,0.00
2023-05-11T01:48:51.961Z,0.00
2023-05-11T01:49:51.947Z,0.00
2023-05-11T01:50:51.901Z,0.00
2023-05-11T01:51:51.919Z,0.00
2023-05-11T01:52:51.926Z,0.00
2023-05-11T01:53:51.920Z,0.00
2023-05-11T01:54:51.879Z,0.00
2023-05-11T01:55:51.893Z,0.00
2023-05-11T01:56:51.884Z,0.00
2023-05-11T01:57:51.858Z,0.00
2023-05-11T01:58:51.897Z,0.00
2023-05-11T01:59:51.867Z,0.00
2023-05-11T02:00:51.861Z,0.00
2023-05-11T02:01:51.856Z,0.00
2023-05-11T02:02:51.862Z,0.00
2023-05-11T02:03:51.823Z,0.00
2023-05-11T02:04:51.800Z,0.00
2023-05-11T02:05:51.794Z,0.00
2023-05-11T02:06:51.800Z,0.00
2023-05-11T02:07:51.797Z,0.00
2023-05-11T02:08:51.791Z,0.00
2023-05-11T02:09:51.756Z,0.00
2023-05-11T02:10:51.751Z,0.00
2023-05-11T02:11:51.744Z,0.00
2023-05-11T02:12:51.752Z,0.00
2023-05-11T02:13:51.743Z,0.00
2023-05-11T02:14:51.716Z,0.00
2023-05-11T02:15:51.996Z,0.00
2023-05-11T02:16:51.718Z,0.00
2023-05-11T02:17:51.711Z,0.00
2023-05-11T02:18:51.729Z,0.00
2023-05-11T02:19:51.711Z,0.00
2023-05-11T02:20:51.677Z,0.00
2023-05-11T02:21:51.674Z,0.00
2023-05-11T02:22:51.701Z,0.00
2023-05-11T02:23:51.632Z,0.00
2023-05-11T02:24:51.641Z,0.00
2023-05-11T02:25:51.622Z,0.00
2023-05-11T02:26:51.614Z,0.00
2023-05-11T02:27:51.619Z,0.00
2023-05-11T02:28:51.611Z,0.00
2023-05-11T02:29:51.605Z,0.00
2023-05-11T02:30:51.578Z,0.00
2023-05-11T02:31:51.663Z,0.00
2023-05-11T02:32:51.666Z,0.00
2023-05-11T02:33:52.689Z,0.00
2023-05-11T02:34:51.565Z,0.00
2023-05-11T02:35:51.609Z,0.00
2023-05-11T02:36:51.533Z,0.00
2023-05-11T02:37:51.523Z,0.00
2023-05-11T02:38:51.530Z,0.00
2023-05-11T02:39:51.543Z,0.00
2023-05-11T02:40:51.507Z,0.00
2023-05-11T02:41:51.491Z,0.00
2023-05-11T02:42:51.481Z,0.00
2023-05-11T02:43:51.509Z,0.00
2023-05-11T02:44:51.497Z,0.00
2023-05-11T02:45:51.463Z,0.00
2023-05-11T02:46:51.527Z,0.00
2023-05-11T02:47:51.545Z,0.00
2023-05-11T02:48:51.476Z,0.00
2023-05-11T02:49:51.455Z,0.00
2023-05-11T02:50:51.443Z,0.00
2023-05-11T02:51:51.409Z,0.00
2023-05-11T02:52:51.444Z,0.00
2023-05-11T02:53:51.460Z,0.00
2023-05-11T02:54:51.618Z,0.00
2023-05-11T02:55:51.397Z,0.00
2023-05-11T02:56:51.389Z,0.00
2023-05-11T02:57:51.456Z,0.00
2023-05-11T02:58:51.365Z,0.00
2023-05-11T02:59:51.364Z,0.00
2023-05-11T03:00:51.587Z,0.00
2023-05-11T03:01:51.649Z,0.00
2023-05-11T03:02:51.422Z,0.00
2023-05-11T03:03:51.406Z,0.00
2023-05-11T03:04:51.332Z,0.00
2023-05-11T03:05:51.300Z,0.00
2023-05-11T03:06:51.337Z,0.00
2023-05-11T03:07:51.315Z,0.00
2023-05-11T03:08:51.270Z,0.00
2023-05-11T03:09:51.273Z,0.00
2023-05-11T03:10:51.233Z,0.00
2023-05-11T03:11:51.220Z,0.00
2023-05-11T03:12:51.225Z,0.00
2023-05-11T03:13:51.261Z,4.00
2023-05-11T03:14:51.214Z,4.00
2023-05-11T03:15:51.209Z,0.00
2023-05-11T03:16:51.236Z,0.00
2023-05-11T03:17:51.248Z,4.00
2023-05-11T03:18:51.177Z,4.00
2023-05-11T03:19:51.223Z,4.00
2023-05-11T03:20:51.168Z,4.00
2023-05-11T03:21:51.171Z,4.00
2023-05-11T03:22:51.132Z,4.00
2023-05-11T03:23:51.126Z,4.00
2023-05-11T03:24:51.127Z,4.00
2023-05-11T03:25:51.319Z,8.00
2023-05-11T03:26:51.109Z,8.00
2023-05-11T03:27:51.134Z,8.00
2023-05-11T03:28:51.097Z,12.00
2023-05-11T03:29:51.127Z,8.00
2023-05-11T03:30:51.083Z,12.00
2023-05-11T03:31:51.483Z,12.00
2023-05-11T03:32:51.104Z,12.00
2023-05-11T03:33:51.076Z,16.00
2023-05-11T03:34:51.044Z,16.00
2023-05-11T03:35:51.347Z,16.00
2023-05-11T03:36:51.082Z,20.00
2023-05-11T03:37:51.014Z,20.00
2023-05-11T03:38:51.013Z,24.00
2023-05-11T03:39:51.019Z,24.00
2023-05-11T03:40:51.011Z,28.00
2023-05-11T03:41:50.991Z,28.00
2023-05-11T03:42:50.980Z,28.00
2023-05-11T03:43:51.702Z,24.00
2023-05-11T03:44:51.015Z,28.00
2023-05-11T03:45:51.017Z,24.00
2023-05-11T03:46:50.994Z,28.00
2023-05-11T03:47:51.005Z,28.00
2023-05-11T03:48:51.145Z,32.00
2023-05-11T03:49:50.951Z,32.00
2023-05-11T03:50:50.944Z,36.00
2023-05-11T03:51:50.950Z,40.00
2023-05-11T03:52:50.887Z,40.00
2023-05-11T03:53:50.905Z,48.00
2023-05-11T03:54:50.899Z,48.00
2023-05-11T03:55:50.889Z,52.00
2023-05-11T03:56:50.896Z,56.00
2023-05-11T03:57:50.847Z,56.00
2023-05-11T03:58:50.913Z,64.00
2023-05-11T03:59:50.864Z,68.00
2023-05-11T04:00:50.826Z,72.00
2023-05-11T04:01:50.821Z,76.00
2023-05-11T04:02:50.974Z,80.00
2023-05-11T04:03:50.942Z,84.00
2023-05-11T04:04:50.860Z,84.00
2023-05-11T04:05:50.841Z,88.00
2023-05-11T04:06:50.785Z,92.00
2023-05-11T04:07:50.836Z,96.00
2023-05-11T04:08:50.784Z,104.00
2023-05-11T04:09:50.809Z,108.00
2023-05-11T04:10:50.748Z,112.00
2023-05-11T04:11:50.795Z,120.00
2023-05-11T04:12:50.732Z,128.00
2023-05-11T04:13:50.719Z,140.00
2023-05-11T04:14:50.725Z,144.00
2023-05-11T04:15:53.722Z,148.00
2023-05-11T04:16:50.697Z,156.00
2023-05-11T04:17:50.731Z,164.00
2023-05-11T04:18:50.917Z,164.00
2023-05-11T04:19:50.686Z,176.00
2023-05-11T04:20:50.664Z,184.00
2023-05-11T04:21:50.850Z,196.00
2023-05-11T04:22:50.654Z,200.00
2023-05-11T04:23:50.707Z,204.00
2023-05-11T04:24:50.826Z,208.00
2023-05-11T04:25:50.669Z,216.00
2023-05-11T04:26:50.622Z,224.00
2023-05-11T04:27:50.624Z,236.00
2023-05-11T04:28:50.617Z,248.00
2023-05-11T04:29:50.594Z,260.00
2023-05-11T04:30:50.561Z,272.00
2023-05-11T04:31:50.608Z,292.00
2023-05-11T04:32:50.782Z,312.00
2023-05-11T04:33:50.563Z,328.00
2023-05-11T04:34:50.758Z,340.00
2023-05-11T04:35:50.517Z,352.00
2023-05-11T04:36:50.521Z,364.00
2023-05-11T04:37:50.517Z,372.00
2023-05-11T04:38:50.511Z,380.00
2023-05-11T04:39:50.522Z,388.00
2023-05-11T04:40:50.603Z,392.00
2023-05-11T04:41:50.519Z,396.00
2023-05-11T04:42:50.468Z,396.00
2023-05-11T04:43:50.492Z,400.00
2023-05-11T04:44:50.691Z,404.00
2023-05-11T04:45:50.506Z,404.00
2023-05-11T04:46:50.490Z,408.00
2023-05-11T04:47:50.543Z,408.00
2023-05-11T04:48:50.414Z,408.00
2023-05-11T04:49:50.657Z,404.00
2023-05-11T04:50:50.435Z,404.00
2023-05-11T04:51:50.402Z,408.00
2023-05-11T04:52:50.413Z,408.00
2023-05-11T04:53:50.553Z,412.00
2023-05-11T04:54:50.365Z,420.00
2023-05-11T04:55:50.432Z,428.00
2023-05-11T04:56:50.361Z,440.00
2023-05-11T04:57:50.389Z,452.00
2023-05-11T04:58:50.361Z,464.00
2023-05-11T04:59:50.373Z,472.00
2023-05-11T05:00:50.354Z,480.00
2023-05-11T05:01:50.359Z,488.00
2023-05-11T05:02:50.836Z,488.00
2023-05-11T05:03:50.349Z,488.00
2023-05-11T05:04:50.282Z,480.00
2023-05-11T05:05:50.484Z,480.00
2023-05-11T05:06:50.282Z,484.00
2023-05-11T05:07:50.339Z,488.00
2023-05-11T05:08:50.256Z,496.00
2023-05-11T05:09:50.295Z,508.00
2023-05-11T05:10:50.443Z,524.00
2023-05-11T05:11:50.303Z,552.00
2023-05-11T05:12:50.250Z,572.00
2023-05-11T05:13:50.204Z,596.00
2023-05-11T05:14:50.232Z,616.00
2023-05-11T05:15:50.181Z,636.00
2023-05-11T05:16:50.314Z,656.00
2023-05-11T05:17:50.302Z,676.00
2023-05-11T05:18:50.256Z,696.00
2023-05-11T05:19:50.182Z,712.00
2023-05-11T05:20:50.222Z,740.00
2023-05-11T05:21:50.348Z,768.00
2023-05-11T05:22:50.160Z,792.00
2023-05-11T05:23:50.150Z,816.00
2023-05-11T05:24:50.139Z,836.00
2023-05-11T05:25:50.142Z,844.00
2023-05-11T05:26:50.127Z,840.00
2023-05-11T05:27:50.141Z,808.00
2023-05-11T05:28:50.127Z,776.00
2023-05-11T05:29:50.101Z,736.00
2023-05-11T05:30:50.122Z,696.00
2023-05-11T05:31:50.073Z,664.00
2023-05-11T05:32:50.089Z,648.00
2023-05-11T05:33:50.070Z,652.00
2023-05-11T05:34:50.054Z,648.00
2023-05-11T05:35:50.028Z,660.00
2023-05-11T05:36:50.044Z,676.00
2023-05-11T05:37:50.038Z,684.00
2023-05-11T05:38:50.031Z,724.00
2023-05-11T05:39:50.030Z,756.00
2023-05-11T05:40:50.023Z,780.00
2023-05-11T05:41:49.999Z,800.00
2023-05-11T05:42:49.965Z,816.00
2023-05-11T05:43:50.044Z,824.00
2023-05-11T05:44:49.979Z,832.00
2023-05-11T05:45:50.006Z,852.00
2023-05-11T05:46:49.941Z,872.00
2023-05-11T05:47:49.974Z,904.00
2023-05-11T05:48:49.935Z,928.00
2023-05-11T05:49:49.910Z,952.00
2023-05-11T05:50:49.916Z,972.00
2023-05-11T05:51:49.930Z,976.00
2023-05-11T05:52:49.887Z,972.00
2023-05-11T05:53:49.890Z,944.00
2023-05-11T05:54:49.905Z,928.00
2023-05-11T05:55:49.874Z,932.00
2023-05-11T05:56:49.871Z,936.00
2023-05-11T05:57:49.847Z,928.00
2023-05-11T05:58:49.844Z,936.00
2023-05-11T05:59:49.868Z,944.00
2023-05-11T06:00:49.832Z,952.00
2023-05-11T06:01:49.810Z,956.00
2023-05-11T06:02:49.875Z,944.00
2023-05-11T06:03:49.953Z,908.00
2023-05-11T06:04:49.817Z,864.00
2023-05-11T06:05:50.002Z,824.00
2023-05-11T06:06:49.829Z,800.00
2023-05-11T06:08:01.817Z,780.00
2023-05-11T06:08:49.798Z,804.00
2023-05-11T06:09:49.763Z,808.00
2023-05-11T06:10:49.806Z,824.00
2023-05-11T06:11:49.778Z,872.00
2023-05-11T06:12:49.761Z,920.00
2023-05-11T06:13:49.750Z,976.00
2023-05-11T06:14:49.945Z,1008.00
2023-05-11T06:15:49.827Z,1032.00
2023-05-11T06:16:49.947Z,1040.00
2023-05-11T06:17:49.756Z,1044.00
2023-05-11T06:18:49.765Z,1040.00
2023-05-11T06:19:49.677Z,1036.00
2023-05-11T06:20:49.669Z,1032.00
2023-05-11T06:21:49.690Z,1032.00
2023-05-11T06:22:49.669Z,1024.00
2023-05-11T06:23:49.672Z,1012.00
2023-05-11T06:24:49.662Z,1016.00
2023-05-11T06:25:49.654Z,1020.00
2023-05-11T06:26:49.653Z,1012.00
2023-05-11T06:27:49.674Z,1004.00
2023-05-11T06:28:49.600Z,1000.00
2023-05-11T06:29:49.611Z,1000.00
2023-05-11T06:30:49.585Z,1004.00
2023-05-11T06:31:49.692Z,1004.00
2023-05-11T06:32:49.687Z,1012.00
2023-05-11T06:33:49.570Z,1032.00
2023-05-11T06:34:49.588Z,1060.00
2023-05-11T06:35:49.604Z,1088.00
2023-05-11T06:36:49.573Z,1116.00
2023-05-11T06:37:49.545Z,1124.00
2023-05-11T06:38:49.536Z,1140.00
2023-05-11T06:39:49.539Z,1156.00
2023-05-11T06:40:49.535Z,1168.00
2023-05-11T06:41:49.519Z,1172.00
2023-05-11T06:42:49.537Z,1164.00
2023-05-11T06:43:49.505Z,1136.00
2023-05-11T06:44:49.513Z,1096.00
2023-05-11T06:45:49.546Z,1060.00
2023-05-11T06:46:49.478Z,1032.00
2023-05-11T06:47:49.527Z,1024.00
2023-05-11T06:48:49.467Z,1032.00
2023-05-11T06:49:49.468Z,1044.00
2023-05-11T06:50:49.466Z,1080.00
2023-05-11T06:51:49.658Z,1136.00
2023-05-11T06:52:49.461Z,1188.00
2023-05-11T06:53:49.465Z,1236.00
2023-05-11T06:54:49.402Z,1280.00
2023-05-11T06:55:49.438Z,1320.00
2023-05-11T06:56:49.409Z,1360.00
2023-05-11T06:57:49.390Z,1396.00
2023-05-11T06:58:49.409Z,1428.00
2023-05-11T06:59:49.387Z,1464.00
2023-05-11T07:00:49.385Z,1492.00
2023-05-11T07:01:49.417Z,1508.00
2023-05-11T07:02:49.461Z,1500.00
2023-05-11T07:03:49.768Z,1476.00
2023-05-11T07:04:49.370Z,1412.00
2023-05-11T07:05:49.521Z,1328.00
2023-05-11T07:06:49.313Z,1240.00
2023-05-11T07:07:49.340Z,1160.00
2023-05-11T07:08:49.313Z,1108.00
2023-05-11T07:09:49.313Z,1068.00
2023-05-11T07:10:49.702Z,1052.00
2023-05-11T07:11:49.279Z,1056.00
2023-05-11T07:12:49.468Z,1076.00
2023-05-11T07:13:49.286Z,1104.00
2023-05-11T07:14:49.274Z,1112.00
2023-05-11T07:15:49.254Z,1128.00
2023-05-11T07:16:49.305Z,1152.00
2023-05-11T07:17:49.282Z,1168.00
2023-05-11T07:18:49.268Z,1196.00
2023-05-11T07:19:49.325Z,1228.00
2023-05-11T07:20:49.207Z,1232.00
2023-05-11T07:21:49.191Z,1228.00
2023-05-11T07:22:49.199Z,1228.00
2023-05-11T07:23:49.235Z,1212.00
2023-05-11T07:24:49.179Z,1160.00
2023-05-11T07:25:49.168Z,1056.00
2023-05-11T07:26:49.184Z,940.00
2023-05-11T07:27:49.154Z,856.00
2023-05-11T07:28:49.182Z,788.00
2023-05-11T07:29:49.162Z,728.00
2023-05-11T07:30:49.113Z,728.00
2023-05-11T07:31:49.497Z,748.00
2023-05-11T07:32:49.170Z,780.00
2023-05-11T07:33:49.330Z,824.00
2023-05-11T07:34:49.136Z,844.00
2023-05-11T07:35:49.140Z,868.00
2023-05-11T07:36:49.077Z,880.00
2023-05-11T07:37:49.105Z,892.00
2023-05-11T07:38:49.119Z,900.00
2023-05-11T07:39:49.062Z,900.00
2023-05-11T07:40:49.087Z,872.00
2023-05-11T07:41:49.065Z,832.00
2023-05-11T07:42:49.087Z,796.00
2023-05-11T07:43:49.020Z,776.00
2023-05-11T07:44:49.009Z,760.00
2023-05-11T07:45:49.033Z,764.00
2023-05-11T07:46:49.247Z,796.00
2023-05-11T07:47:49.022Z,844.00
2023-05-11T07:48:51.627Z,884.00
2023-05-11T07:49:49.021Z,916.00
2023-05-11T07:50:48.992Z,960.00
2023-05-11T07:51:48.997Z,1004.00
2023-05-11T07:52:49.415Z,1032.00
2023-05-11T07:53:48.940Z,1056.00
2023-05-11T07:54:48.935Z,1080.00
2023-05-11T07:55:48.966Z,1092.00
2023-05-11T07:56:48.931Z,1056.00
2023-05-11T07:57:48.896Z,1016.00
2023-05-11T07:58:48.936Z,1000.00
2023-05-11T07:59:48.907Z,1004.00
2023-05-11T08:00:49.101Z,1016.00
2023-05-11T08:01:48.894Z,1028.00
2023-05-11T08:02:49.030Z,1056.00
2023-05-11T08:03:48.876Z,1092.00
2023-05-11T08:04:48.885Z,1116.00
2023-05-11T08:05:49.109Z,1124.00
2023-05-11T08:06:48.896Z,1112.00
2023-05-11T08:07:48.895Z,1096.00
2023-05-11T08:08:48.835Z,1088.00
2023-05-11T08:09:48.851Z,1076.00
2023-05-11T08:10:48.847Z,1048.00
2023-05-11T08:11:48.807Z,1024.00
2023-05-11T08:12:48.828Z,996.00
2023-05-11T08:13:48.817Z,956.00
2023-05-11T08:14:49.001Z,932.00
2023-05-11T08:15:48.862Z,928.00
2023-05-11T08:16:48.865Z,932.00
2023-05-11T08:17:48.797Z,924.00
2023-05-11T08:18:48.812Z,928.00
2023-05-11T08:19:48.758Z,952.00
2023-05-11T08:20:48.750Z,1012.00
2023-05-11T08:21:48.928Z,1100.00
2023-05-11T08:22:48.769Z,1204.00
2023-05-11T08:23:48.969Z,1292.00
2023-05-11T08:24:48.756Z,1448.00
2023-05-11T08:25:48.696Z,1500.00
2023-05-11T08:26:48.713Z,1428.00
2023-05-11T08:27:48.735Z,1404.00
2023-05-11T08:28:48.906Z,1392.00
2023-05-11T08:29:48.690Z,1412.00
2023-05-11T08:30:48.715Z,1424.00
2023-05-11T08:31:48.700Z,1424.00
2023-05-11T08:32:57.708Z,1400.00
2023-05-11T08:33:48.738Z,1428.00
2023-05-11T08:34:48.708Z,1492.00
2023-05-11T08:35:48.621Z,1564.00
2023-05-11T08:36:48.671Z,1592.00
2023-05-11T08:37:48.620Z,1596.00
2023-05-11T08:38:48.609Z,1580.00
2023-05-11T08:39:48.827Z,1556.00
2023-05-11T08:40:48.609Z,1576.00
2023-05-11T08:41:48.626Z,1644.00
2023-05-11T08:42:48.603Z,1736.00
2023-05-11T08:43:48.594Z,1796.00
2023-05-11T08:44:48.590Z,1816.00
2023-05-11T08:45:48.575Z,1824.00
2023-05-11T08:46:48.535Z,1824.00
2023-05-11T08:47:48.634Z,1804.00
2023-05-11T08:48:48.555Z,1756.00
2023-05-11T08:49:48.549Z,1688.00
2023-05-11T08:50:48.532Z,1632.00
2023-05-11T08:51:48.507Z,1608.00
2023-05-11T08:52:48.524Z,1644.00
2023-05-11T08:53:48.495Z,1676.00
2023-05-11T08:54:48.532Z,1684.00
2023-05-11T08:55:48.511Z,1712.00
2023-05-11T08:56:48.514Z,1764.00
2023-05-11T08:57:48.455Z,1844.00
2023-05-11T08:58:48.471Z,1952.00
2023-05-11T08:59:48.455Z,2048.00
2023-05-11T09:00:48.425Z,2152.00
2023-05-11T09:01:48.447Z,2240.00
2023-05-11T09:02:48.568Z,2308.00
2023-05-11T09:03:48.433Z,2344.00
2023-05-11T09:04:49.304Z,2376.00
2023-05-11T09:05:48.535Z,2408.00
2023-05-11T09:06:48.392Z,2444.00
2023-05-11T09:07:48.405Z,2488.00
2023-05-11T09:08:48.374Z,2520.00
2023-05-11T09:09:48.464Z,2496.00
2023-05-11T09:10:48.352Z,2420.00
2023-05-11T09:11:48.407Z,2344.00
2023-05-11T09:12:48.357Z,2276.00
2023-05-11T09:13:48.366Z,2196.00
2023-05-11T09:14:48.349Z,2088.00
2023-05-11T09:15:48.362Z,1900.00
2023-05-11T09:16:48.338Z,1712.00
2023-05-11T09:17:48.378Z,1640.00
2023-05-11T09:18:48.369Z,1676.00
2023-05-11T09:19:48.314Z,1724.00
2023-05-11T09:20:48.293Z,1696.00
2023-05-11T09:21:48.305Z,1576.00
2023-05-11T09:22:48.311Z,1472.00
2023-05-11T09:23:48.297Z,1396.00
2023-05-11T09:24:48.255Z,1380.00
2023-05-11T09:25:48.299Z,1392.00
2023-05-11T09:26:48.284Z,1420.00
2023-05-11T09:27:48.297Z,1488.00
2023-05-11T09:29:51.872Z,1680.00
2023-05-11T09:30:48.225Z,1728.00
2023-05-11T09:31:48.350Z,1760.00
2023-05-11T09:32:48.314Z,1796.00
2023-05-11T09:33:48.209Z,1824.00
2023-05-11T09:34:48.206Z,1844.00
2023-05-11T09:35:48.207Z,1832.00
2023-05-11T09:36:48.200Z,1816.00
2023-05-11T09:37:48.208Z,1804.00
2023-05-11T09:38:48.173Z,1828.00
2023-05-11T09:40:14.158Z,1896.00
2023-05-11T09:40:48.186Z,1968.00
2023-05-11T09:41:48.863Z,2024.00
2023-05-11T09:42:48.160Z,2048.00
2023-05-11T09:43:48.221Z,2060.00
2023-05-11T09:44:48.145Z,2064.00
2023-05-11T09:45:48.157Z,2092.00
2023-05-11T09:46:48.159Z,2124.00
2023-05-11T09:47:49.207Z,2144.00
2023-05-11T09:48:48.324Z,2132.00
2023-05-11T09:49:48.154Z,2136.00
2023-05-11T09:50:48.136Z,2156.00
2023-05-11T09:51:48.099Z,2168.00
2023-05-11T09:52:48.078Z,2204.00
2023-05-11T09:53:48.279Z,2240.00
2023-05-11T09:54:48.087Z,2268.00
2023-05-11T09:55:48.073Z,2296.00
2023-05-11T09:56:48.054Z,2312.00
2023-05-11T09:57:48.041Z,2360.00
2023-05-11T09:58:48.035Z,2436.00
2023-05-11T09:59:48.046Z,2524.00
2023-05-11T10:00:48.052Z,2664.00
2023-05-11T10:01:48.065Z,2828.00
2023-05-11T10:02:48.086Z,3048.00
2023-05-11T10:03:48.069Z,3304.00
2023-05-11T10:04:48.018Z,3604.00
2023-05-11T10:05:48.021Z,3976.00
2023-05-11T10:06:47.957Z,4376.00
2023-05-11T10:07:47.964Z,4804.00
2023-05-11T10:08:48.183Z,5212.00
2023-05-11T10:09:47.969Z,5676.00
2023-05-11T10:10:47.943Z,6160.00
2023-05-11T10:11:47.978Z,6644.00
2023-05-11T10:12:47.947Z,7052.00
2023-05-11T10:13:47.940Z,7340.00
2023-05-11T10:14:47.956Z,7588.00
2023-05-11T10:15:48.162Z,7872.00
2023-05-11T10:16:47.940Z,7548.00
2023-05-11T10:17:47.933Z,6636.00
2023-05-11T10:18:47.934Z,6536.00
2023-05-11T10:19:47.903Z,6132.00
2023-05-11T10:20:47.894Z,6128.00
2023-05-11T10:21:47.910Z,6412.00
2023-05-11T10:22:47.868Z,6232.00
2023-05-11T10:23:47.888Z,6276.00
2023-05-11T10:24:48.270Z,6024.00
2023-05-11T10:25:48.101Z,5736.00
2023-05-11T10:26:47.852Z,5716.00
2023-05-11T10:27:48.242Z,6060.00
2023-05-11T10:28:47.848Z,6232.00
2023-05-11T10:29:47.897Z,6384.00
2023-05-11T10:30:47.850Z,6352.00
2023-05-11T10:31:47.895Z,6340.00
2023-05-11T10:32:47.866Z,6244.00
2023-05-11T10:33:49.215Z,6120.00
2023-05-11T10:34:47.810Z,6120.00
2023-05-11T10:35:47.779Z,6288.00
2023-05-11T10:36:47.807Z,6468.00
2023-05-11T10:37:47.802Z,6500.00
2023-05-11T10:38:47.805Z,6564.00
2023-05-11T10:39:50.124Z,6812.00
2023-05-11T10:40:47.797Z,6956.00
2023-05-11T10:41:47.776Z,7452.00
2023-05-11T10:42:47.752Z,7584.00
2023-05-11T10:43:47.737Z,7092.00
2023-05-11T10:44:47.761Z,6792.00
2023-05-11T10:45:47.753Z,6316.00
2023-05-11T10:46:47.705Z,5996.00
2023-05-11T10:47:47.763Z,5788.00
2023-05-11T10:48:47.701Z,5984.00
2023-05-11T10:49:47.714Z,5792.00
2023-05-11T10:50:47.709Z,5508.00
2023-05-11T10:51:47.683Z,5392.00
2023-05-11T10:52:47.695Z,5328.00
2023-05-11T10:53:47.680Z,5356.00
2023-05-11T10:54:47.686Z,5336.00
2023-05-11T10:55:47.720Z,5380.00
2023-05-11T10:56:47.675Z,5496.00
2023-05-11T10:57:47.694Z,5428.00
2023-05-11T10:58:47.706Z,5356.00
2023-05-11T10:59:47.688Z,5276.00
2023-05-11T11:00:47.988Z,5208.00
2023-05-11T11:01:47.667Z,5128.00
2023-05-11T11:02:47.698Z,5148.00
2023-05-11T11:03:47.650Z,5000.00
2023-05-11T11:04:47.827Z,4988.00
2023-05-11T11:05:47.683Z,4980.00
2023-05-11T11:06:47.619Z,5064.00
2023-05-11T11:07:47.590Z,5220.00
2023-05-11T11:08:47.601Z,5452.00
2023-05-11T11:09:47.612Z,5452.00
2023-05-11T11:10:47.776Z,5088.00
2023-05-11T11:11:47.571Z,5076.00
2023-05-11T11:12:47.581Z,5316.00
2023-05-11T11:13:47.570Z,5568.00
2023-05-11T11:14:47.565Z,5444.00
2023-05-11T11:15:47.557Z,5660.00
2023-05-11T11:16:47.581Z,5968.00
2023-05-11T11:17:47.563Z,6432.00
2023-05-11T11:18:47.625Z,6548.00
2023-05-11T11:19:47.572Z,6832.00
2023-05-11T11:20:47.527Z,7208.00
2023-05-11T11:21:47.522Z,7380.00
2023-05-11T11:22:47.731Z,8104.00
2023-05-11T11:23:47.515Z,7412.00
2023-05-11T11:24:47.508Z,7120.00
2023-05-11T11:25:47.516Z,7608.00
2023-05-11T11:26:47.486Z,6464.00
2023-05-11T11:27:47.496Z,5952.00
2023-05-11T11:28:47.490Z,6280.00
2023-05-11T11:29:47.481Z,5644.00
2023-05-11T11:30:47.545Z,6332.00
2023-05-11T11:31:47.467Z,5536.00
2023-05-11T11:32:47.477Z,5184.00
2023-05-11T11:33:47.449Z,5192.00
2023-05-11T11:34:47.442Z,5216.00
2023-05-11T11:35:47.488Z,4824.00
2023-05-11T11:36:47.440Z,4952.00
2023-05-11T11:37:47.428Z,4584.00
2023-05-11T11:38:47.640Z,4428.00
2023-05-11T11:39:47.443Z,4376.00
2023-05-11T11:40:51.102Z,4856.00
2023-05-11T11:41:47.411Z,4484.00
2023-05-11T11:42:47.418Z,4492.00
2023-05-11T11:43:47.416Z,4608.00
2023-05-11T11:44:47.416Z,4628.00
2023-05-11T11:45:47.408Z,4812.00
2023-05-11T11:46:47.464Z,5288.00
2023-05-11T11:47:47.427Z,4804.00
2023-05-11T11:48:47.381Z,4840.00
2023-05-11T11:49:47.366Z,4692.00
2023-05-11T11:50:47.367Z,4584.00
2023-05-11T11:51:47.374Z,4568.00
2023-05-11T11:52:47.343Z,4688.00
2023-05-11T11:53:47.348Z,4944.00
2023-05-11T11:54:47.355Z,5288.00
2023-05-11T11:55:47.333Z,5308.00
2023-05-11T11:56:47.383Z,5296.00
2023-05-11T11:57:47.324Z,5112.00
2023-05-11T11:58:47.349Z,5676.00
2023-05-11T11:59:47.321Z,5648.00
2023-05-11T12:00:47.342Z,5980.00
2023-05-11T12:01:47.321Z,6156.00
2023-05-11T12:02:47.447Z,6200.00
2023-05-11T12:03:47.464Z,6256.00
2023-05-11T12:04:47.322Z,6316.00
2023-05-11T12:05:47.283Z,6372.00
2023-05-11T12:06:47.297Z,6324.00
2023-05-11T12:07:47.288Z,5796.00
2023-05-11T12:08:47.263Z,6188.00
2023-05-11T12:09:47.308Z,6048.00
2023-05-11T12:10:47.266Z,5860.00
2023-05-11T12:11:47.253Z,5752.00
2023-05-11T12:12:47.283Z,5736.00
2023-05-11T12:13:47.252Z,5128.00
2023-05-11T12:14:47.252Z,4972.00
2023-05-11T12:15:47.241Z,3600.00
2023-05-11T12:16:47.267Z,4124.00
2023-05-11T12:17:47.295Z,2992.00
2023-05-11T12:18:47.259Z,2916.00
2023-05-11T12:19:47.223Z,2908.00
2023-05-11T12:20:47.222Z,2888.00
2023-05-11T12:21:47.204Z,2976.00
2023-05-11T12:22:47.193Z,2980.00
2023-05-11T12:23:47.211Z,2988.00
2023-05-11T12:24:47.197Z,3128.00
2023-05-11T12:25:47.197Z,3276.00
2023-05-11T12:26:47.167Z,3352.00
2023-05-11T12:27:47.189Z,3428.00
2023-05-11T12:28:47.171Z,3424.00
2023-05-11T12:29:47.159Z,3388.00
2023-05-11T12:30:47.190Z,3360.00
2023-05-11T12:31:47.282Z,3336.00
2023-05-11T12:32:47.188Z,3428.00